Time;durP1;ratioP1;P1;durP2;ratioP2;P2;SDS_P1;SDS_P2;PMS_P1;PMS_P2;Temp;Humidity;BMP_temperature;BMP_pressure;BME280_temperature;BME280_humidity;BME280_pressure;Samples;Min_cycle;Max_cycle;Signal;HPM_P1;HPM_P2
2022/04/28 00:00:03;;;;;;;8.73;3.88;;;;;;;;;;5121836;27;20111;-66
2022/04/28 00:02:30;;;;;;;9.18;4.18;;;;;;;;;;5109416;27;20528;-65
2022/04/28 00:04:56;;;;;;;7.65;3.65;;;;;;;;;;5120036;27;20522;-66
2022/04/28 00:07:22;;;;;;;14.77;3.70;;;;;;;;;;5109214;27;20140;-66
2022/04/28 00:09:49;;;;;;;9.88;4.20;;;;;;;;;;5108382;27;20097;-66
2022/04/28 00:12:16;;;;;;;14.10;4.15;;;;;;;;;;5107995;27;20088;-65
2022/04/28 00:14:43;;;;;;;11.40;4.32;;;;;;;;;;5114499;27;20071;-66
2022/04/28 00:17:10;;;;;;;10.55;3.75;;;;;;;;;;5129907;27;20577;-66
2022/04/28 00:19:37;;;;;;;8.32;4.13;;;;;;;;;;5128027;27;20151;-65
2022/04/28 00:22:04;;;;;;;10.32;4.07;;;;;;;;;;5111781;27;20072;-65
2022/04/28 00:24:30;;;;;;;9.88;4.07;;;;;;;;;;5108987;27;20143;-66
2022/04/28 00:26:56;;;;;;;8.57;3.97;;;;;;;;;;5107420;27;20048;-66
2022/04/28 00:29:24;;;;;;;13.38;5.03;;;;;;;;;;5108216;27;20051;-67
2022/04/28 00:31:50;;;;;;;13.80;3.80;;;;;;;;;;5109257;27;20189;-66
2022/04/28 00:34:17;;;;;;;12.38;4.43;;;;;;;;;;5108487;27;20048;-66
2022/04/28 00:36:43;;;;;;;9.43;4.18;;;;;;;;;;5113267;27;20127;-67
2022/04/28 00:39:09;;;;;;;12.02;4.85;;;;;;;;;;5126578;27;20513;-67
2022/04/28 00:41:36;;;;;;;11.18;4.40;;;;;;;;;;5128205;27;20087;-67
2022/04/28 00:44:02;;;;;;;10.93;4.78;;;;;;;;;;5128507;27;20146;-66
2022/04/28 00:46:28;;;;;;;11.75;5.03;;;;;;;;;;5112272;27;20084;-69
2022/04/28 00:51:40;;;;;;;11.13;4.80;;;;;;;;;;5114986;27;20083;-67
2022/04/28 00:54:07;;;;;;;14.20;4.63;;;;;;;;;;5109295;27;20094;-67
2022/04/28 00:56:34;;;;;;;13.10;5.03;;;;;;;;;;5112208;27;20202;-66
2022/04/28 00:59:02;;;;;;;12.63;4.97;;;;;;;;;;5113686;27;20056;-65
2022/04/28 01:01:29;;;;;;;13.65;5.20;;;;;;;;;;5119159;27;20055;-65
2022/04/28 01:03:55;;;;;;;13.43;4.68;;;;;;;;;;5108284;27;20102;-65
2022/04/28 01:06:22;;;;;;;10.65;4.57;;;;;;;;;;5109097;27;20071;-66
2022/04/28 01:08:48;;;;;;;12.82;5.55;;;;;;;;;;5107658;27;20171;-65
2022/04/28 01:11:16;;;;;;;12.27;4.80;;;;;;;;;;5117640;27;20105;-66
2022/04/28 01:13:43;;;;;;;11.55;5.03;;;;;;;;;;5121707;27;20133;-65
2022/04/28 01:16:11;;;;;;;12.60;5.40;;;;;;;;;;5107105;27;20055;-65
2022/04/28 01:18:38;;;;;;;10.00;5.28;;;;;;;;;;5125972;27;20109;-65
2022/04/28 01:21:05;;;;;;;16.70;5.32;;;;;;;;;;5110288;27;20141;-65
2022/04/28 01:23:31;;;;;;;11.15;4.60;;;;;;;;;;5107788;27;20044;-66
2022/04/28 01:25:58;;;;;;;12.68;5.15;;;;;;;;;;5124799;27;20087;-65
2022/04/28 01:28:28;;;;;;;10.95;5.00;;;;;;;;;;5122239;27;20084;-65
2022/04/28 01:30:54;;;;;;;15.75;5.10;;;;;;;;;;5106247;27;20101;-65
2022/04/28 01:33:21;;;;;;;12.15;5.63;;;;;;;;;;5107419;27;20553;-65
2022/04/28 01:35:47;;;;;;;15.63;5.57;;;;;;;;;;5116560;27;20596;-65
2022/04/28 01:38:13;;;;;;;13.43;4.97;;;;;;;;;;5124082;27;20200;-65
2022/04/28 01:40:40;;;;;;;12.55;5.25;;;;;;;;;;5109165;27;20086;-66
2022/04/28 01:43:06;;;;;;;11.45;5.10;;;;;;;;;;5126407;27;20051;-65
2022/04/28 01:45:32;;;;;;;10.93;4.60;;;;;;;;;;5119871;27;20091;-66
2022/04/28 01:47:59;;;;;;;13.18;5.30;;;;;;;;;;5124510;27;20063;-66
2022/04/28 01:50:25;;;;;;;8.18;4.55;;;;;;;;;;5113426;27;20133;-65
2022/04/28 01:55:37;;;;;;;12.90;4.95;;;;;;;;;;5110445;27;20117;-65
2022/04/28 01:58:03;;;;;;;12.25;5.05;;;;;;;;;;5113076;27;20048;-67
2022/04/28 02:00:29;;;;;;;9.85;4.82;;;;;;;;;;5112475;27;20087;-65
2022/04/28 02:02:56;;;;;;;11.38;5.28;;;;;;;;;;5114140;27;20101;-65
2022/04/28 02:05:22;;;;;;;13.93;5.47;;;;;;;;;;5121775;27;20052;-65
2022/04/28 02:07:49;;;;;;;13.27;5.40;;;;;;;;;;5121347;27;20134;-65
2022/04/28 02:10:15;;;;;;;11.57;4.95;;;;;;;;;;5131244;27;20135;-65
2022/04/28 02:12:42;;;;;;;10.13;5.18;;;;;;;;;;5130770;27;20051;-65
2022/04/28 02:15:09;;;;;;;14.90;5.35;;;;;;;;;;5113576;27;20048;-65
2022/04/28 02:17:37;;;;;;;10.48;5.57;;;;;;;;;;5131371;27;20522;-66
2022/04/28 02:20:04;;;;;;;11.20;5.30;;;;;;;;;;5130160;27;20087;-66
2022/04/28 02:22:31;;;;;;;12.85;5.60;;;;;;;;;;5118374;27;20144;-65
2022/04/28 02:24:57;;;;;;;9.10;5.18;;;;;;;;;;5122632;27;20142;-65
2022/04/28 02:27:27;;;;;;;11.35;5.65;;;;;;;;;;5125695;27;20175;-65
2022/04/28 02:29:54;;;;;;;11.32;5.90;;;;;;;;;;5121124;27;20075;-65
2022/04/28 02:32:20;;;;;;;12.45;5.25;;;;;;;;;;5125207;27;20051;-65
2022/04/28 02:34:47;;;;;;;12.90;5.88;;;;;;;;;;5115975;27;20134;-65
2022/04/28 02:37:16;;;;;;;15.13;5.50;;;;;;;;;;5109968;27;20056;-65
2022/04/28 02:39:42;;;;;;;9.80;5.22;;;;;;;;;;5113479;27;20055;-65
2022/04/28 02:42:09;;;;;;;11.77;5.60;;;;;;;;;;5110137;27;20851;-65
2022/04/28 02:44:35;;;;;;;12.07;5.70;;;;;;;;;;5120903;27;20143;-65
2022/04/28 02:47:02;;;;;;;13.15;6.05;;;;;;;;;;5110943;27;20128;-65
2022/04/28 02:49:28;;;;;;;12.57;5.03;;;;;;;;;;5125511;27;20098;-65
2022/04/28 02:51:55;;;;;;;13.73;5.95;;;;;;;;;;5112774;27;20056;-65
2022/04/28 02:54:21;;;;;;;12.25;5.78;;;;;;;;;;5112429;27;20135;-65
2022/04/28 02:56:48;;;;;;;12.63;5.85;;;;;;;;;;5110519;27;20968;-65
2022/04/28 02:59:14;;;;;;;12.35;5.45;;;;;;;;;;5129259;27;20079;-65
2022/04/28 03:01:40;;;;;;;13.73;6.07;;;;;;;;;;5123192;27;20563;-65
2022/04/28 03:04:07;;;;;;;11.38;5.88;;;;;;;;;;5117695;27;20059;-65
2022/04/28 03:12:03;;;;;;;13.43;5.93;;;;;;;;;;5112297;27;20079;-65
2022/04/28 03:14:29;;;;;;;12.15;5.45;;;;;;;;;;5115494;27;20122;-65
2022/04/28 03:16:56;;;;;;;11.13;5.25;;;;;;;;;;5110231;27;20936;-65
2022/04/28 03:19:22;;;;;;;15.15;6.05;;;;;;;;;;5109100;27;20175;-65
2022/04/28 03:21:48;;;;;;;14.82;5.45;;;;;;;;;;5118245;27;20166;-68
2022/04/28 03:24:15;;;;;;;17.02;6.82;;;;;;;;;;5120193;27;20068;-65
2022/04/28 03:26:41;;;;;;;10.32;5.80;;;;;;;;;;5121562;27;20105;-65
2022/04/28 03:29:07;;;;;;;16.65;6.07;;;;;;;;;;5128436;27;20501;-65
2022/04/28 03:31:34;;;;;;;16.77;6.32;;;;;;;;;;5118013;27;20103;-65
2022/04/28 03:34:00;;;;;;;13.80;6.07;;;;;;;;;;5111535;27;20542;-65
2022/04/28 03:39:12;;;;;;;10.68;5.65;;;;;;;;;;5125643;27;20105;-65
2022/04/28 03:41:38;;;;;;;19.50;6.80;;;;;;;;;;5116055;27;20052;-65
2022/04/28 03:44:04;;;;;;;15.57;6.35;;;;;;;;;;5108492;27;20139;-65
2022/04/28 03:46:31;;;;;;;12.38;6.18;;;;;;;;;;5109541;27;20098;-65
2022/04/28 03:48:57;;;;;;;13.35;6.97;;;;;;;;;;5109465;27;20131;-65
2022/04/28 03:51:23;;;;;;;14.55;6.03;;;;;;;;;;5115186;27;20144;-65
2022/04/28 03:53:50;;;;;;;18.92;6.65;;;;;;;;;;5121803;27;20160;-65
2022/04/28 03:56:16;;;;;;;15.70;7.10;;;;;;;;;;5127561;27;20140;-65
2022/04/28 03:58:43;;;;;;;21.00;6.72;;;;;;;;;;5125569;27;20108;-65
2022/04/28 04:01:09;;;;;;;18.02;6.65;;;;;;;;;;5108158;27;20458;-65
2022/04/28 04:03:36;;;;;;;15.38;7.07;;;;;;;;;;5108322;27;20060;-65
2022/04/28 04:06:02;;;;;;;11.23;5.97;;;;;;;;;;5124432;27;20055;-65
2022/04/28 04:08:28;;;;;;;13.90;6.18;;;;;;;;;;5114534;27;20052;-65
2022/04/28 04:10:55;;;;;;;14.93;6.45;;;;;;;;;;5113197;27;20224;-65
2022/04/28 04:13:21;;;;;;;16.23;6.70;;;;;;;;;;5120726;27;20079;-65
2022/04/28 04:15:50;;;;;;;14.77;6.72;;;;;;;;;;5111832;27;20098;-65
2022/04/28 04:18:17;;;;;;;11.93;6.55;;;;;;;;;;5127835;27;20117;-65
2022/04/28 04:20:43;;;;;;;13.23;6.05;;;;;;;;;;5108657;27;20114;-65
2022/04/28 04:23:09;;;;;;;13.73;6.00;;;;;;;;;;5116662;27;20086;-65
2022/04/28 04:25:36;;;;;;;12.70;6.43;;;;;;;;;;5117754;27;20216;-65
2022/04/28 04:28:02;;;;;;;13.32;6.65;;;;;;;;;;5113172;27;20117;-65
2022/04/28 04:33:14;;;;;;;12.93;6.53;;;;;;;;;;5125798;27;20078;-65
2022/04/28 04:35:40;;;;;;;13.85;6.40;;;;;;;;;;5122732;27;20146;-65
2022/04/28 04:38:06;;;;;;;13.95;6.85;;;;;;;;;;5108847;28;20087;-65
2022/04/28 04:40:33;;;;;;;13.55;6.13;;;;;;;;;;5110091;27;20072;-65
2022/04/28 04:42:59;;;;;;;13.85;6.53;;;;;;;;;;5116523;27;20126;-65
2022/04/28 04:45:26;;;;;;;14.45;6.53;;;;;;;;;;5122449;27;20080;-65
2022/04/28 04:47:52;;;;;;;23.33;7.20;;;;;;;;;;5120999;27;20136;-65
2022/04/28 04:50:18;;;;;;;15.10;6.80;;;;;;;;;;5114850;27;20059;-65
2022/04/28 04:52:45;;;;;;;16.27;7.53;;;;;;;;;;5123260;27;20518;-65
2022/04/28 04:55:11;;;;;;;13.85;7.05;;;;;;;;;;5108907;27;20079;-65
2022/04/28 04:57:37;;;;;;;17.52;6.82;;;;;;;;;;5120632;27;20087;-65
2022/04/28 05:00:05;;;;;;;19.08;7.43;;;;;;;;;;5111912;27;20106;-65
2022/04/28 05:02:31;;;;;;;20.92;8.52;;;;;;;;;;5108679;27;20510;-65
2022/04/28 05:04:58;;;;;;;18.42;7.50;;;;;;;;;;5108874;27;20098;-65
2022/04/28 05:07:30;;;;;;;16.65;7.35;;;;;;;;;;5116997;27;20513;-65
2022/04/28 05:09:57;;;;;;;15.63;7.45;;;;;;;;;;5108478;27;20147;-65
2022/04/28 05:12:23;;;;;;;12.05;7.13;;;;;;;;;;5121698;27;20089;-66
2022/04/28 05:14:49;;;;;;;13.93;7.15;;;;;;;;;;5126548;27;20547;-64
2022/04/28 05:17:16;;;;;;;20.77;7.25;;;;;;;;;;5125699;27;20090;-66
2022/04/28 05:19:43;;;;;;;25.42;8.30;;;;;;;;;;5112142;27;20438;-65
2022/04/28 05:22:09;;;;;;;19.73;7.88;;;;;;;;;;5121659;27;20135;-65
2022/04/28 05:24:35;;;;;;;17.70;7.00;;;;;;;;;;5108357;27;20060;-65
2022/04/28 05:27:02;;;;;;;17.92;7.05;;;;;;;;;;5110299;27;20076;-65
2022/04/28 05:29:29;;;;;;;15.85;6.57;;;;;;;;;;5108379;27;20091;-65
2022/04/28 05:31:55;;;;;;;19.20;7.60;;;;;;;;;;5119172;27;20142;-66
2022/04/28 05:34:21;;;;;;;17.00;6.47;;;;;;;;;;5125147;27;20094;-66
2022/04/28 05:36:48;;;;;;;16.27;6.32;;;;;;;;;;5108557;27;20060;-66
2022/04/28 05:39:19;;;;;;;16.38;6.95;;;;;;;;;;5107801;27;20052;-66
2022/04/28 05:41:45;;;;;;;13.68;6.05;;;;;;;;;;5114247;27;20052;-66
2022/04/28 05:46:56;;;;;;;18.98;6.78;;;;;;;;;;5124869;27;20079;-65
2022/04/28 05:49:22;;;;;;;16.13;7.03;;;;;;;;;;5120664;27;20137;-65
2022/04/28 05:51:49;;;;;;;17.45;7.15;;;;;;;;;;5119911;27;20079;-65
2022/04/28 05:54:16;;;;;;;14.98;7.25;;;;;;;;;;5109279;27;20076;-65
2022/04/28 05:56:42;;;;;;;13.63;6.57;;;;;;;;;;5107595;27;20209;-65
2022/04/28 05:59:10;;;;;;;16.55;6.78;;;;;;;;;;5110817;27;20087;-65
2022/04/28 06:01:37;;;;;;;19.67;7.00;;;;;;;;;;5118683;27;20075;-65
2022/04/28 06:04:04;;;;;;;14.52;5.88;;;;;;;;;;5127009;27;20066;-65
2022/04/28 06:06:36;;;;;;;15.00;6.13;;;;;;;;;;5115072;27;20048;-65
2022/04/28 06:09:02;;;;;;;15.60;6.38;;;;;;;;;;5127985;27;20129;-65
2022/04/28 06:11:29;;;;;;;17.50;7.13;;;;;;;;;;5128540;27;20067;-64
2022/04/28 06:13:55;;;;;;;16.65;6.00;;;;;;;;;;5125365;27;20082;-64
2022/04/28 06:16:22;;;;;;;18.65;6.38;;;;;;;;;;5120794;27;20056;-64
2022/04/28 06:18:49;;;;;;;10.68;6.35;;;;;;;;;;5123034;27;20055;-65
2022/04/28 06:21:15;;;;;;;14.63;6.18;;;;;;;;;;5117858;27;20071;-65
2022/04/28 06:23:42;;;;;;;14.73;6.43;;;;;;;;;;5118019;27;20060;-65
2022/04/28 06:26:08;;;;;;;17.15;6.97;;;;;;;;;;5118926;27;20075;-65
2022/04/28 06:28:34;;;;;;;14.90;5.63;;;;;;;;;;5108720;27;20084;-65
2022/04/28 06:31:01;;;;;;;19.60;6.03;;;;;;;;;;5117125;27;20112;-65
2022/04/28 06:33:27;;;;;;;22.67;6.07;;;;;;;;;;5125807;27;20072;-65
2022/04/28 06:35:55;;;;;;;20.48;6.00;;;;;;;;;;5122400;27;20594;-65
2022/04/28 06:38:21;;;;;;;18.83;5.95;;;;;;;;;;5120962;27;20090;-65
2022/04/28 06:40:48;;;;;;;12.85;4.85;;;;;;;;;;5136769;27;20051;-65
2022/04/28 06:43:14;;;;;;;14.80;6.15;;;;;;;;;;5125777;27;20109;-65
2022/04/28 06:46:11;;;;;;;16.60;6.32;;;;;;;;;;5124653;27;20087;-65
2022/04/28 06:48:27;;;;;;;20.23;6.25;;;;;;;;;;5119746;27;20473;-65
2022/04/28 06:50:53;;;;;;;14.65;6.38;;;;;;;;;;5124862;27;20056;-65
2022/04/28 06:53:19;;;;;;;14.07;6.18;;;;;;;;;;5120861;27;20083;-65
2022/04/28 06:55:46;;;;;;;12.90;5.25;;;;;;;;;;5121948;27;20086;-66
2022/04/28 06:58:12;;;;;;;12.80;5.68;;;;;;;;;;5124000;27;20182;-66
2022/04/28 07:00:38;;;;;;;14.07;5.70;;;;;;;;;;5118791;27;20056;-66
2022/04/28 07:03:05;;;;;;;12.45;5.20;;;;;;;;;;5124125;27;20071;-66
2022/04/28 07:05:33;;;;;;;11.48;4.57;;;;;;;;;;5121028;27;20052;-66
2022/04/28 07:07:59;;;;;;;11.98;4.72;;;;;;;;;;5124994;27;20171;-65
2022/04/28 07:10:25;;;;;;;8.90;4.03;;;;;;;;;;5122258;27;20109;-66
2022/04/28 07:12:52;;;;;;;11.27;4.47;;;;;;;;;;5123759;27;20569;-66
2022/04/28 07:15:18;;;;;;;12.68;5.20;;;;;;;;;;5131526;27;20692;-66
2022/04/28 07:17:44;;;;;;;14.25;4.70;;;;;;;;;;5128837;27;20048;-66
2022/04/28 07:20:11;;;;;;;11.55;4.65;;;;;;;;;;5118788;27;20048;-67
2022/04/28 07:22:37;;;;;;;14.32;4.93;;;;;;;;;;5124075;27;20075;-67
2022/04/28 07:25:03;;;;;;;14.80;4.88;;;;;;;;;;5131101;27;20147;-66
2022/04/28 07:27:30;;;;;;;12.68;4.55;;;;;;;;;;5124122;27;20549;-66
2022/04/28 07:29:56;;;;;;;16.60;5.22;;;;;;;;;;5130881;27;20140;-64
2022/04/28 07:32:22;;;;;;;11.27;4.78;;;;;;;;;;5130820;27;20052;-64
2022/04/28 07:34:49;;;;;;;15.77;5.07;;;;;;;;;;5130898;27;20047;-65
2022/04/28 07:37:15;;;;;;;11.60;4.35;;;;;;;;;;5122318;27;20091;-65
2022/04/28 07:39:41;;;;;;;16.38;5.18;;;;;;;;;;5118195;27;20108;-64
2022/04/28 07:42:08;;;;;;;10.60;3.20;;;;;;;;;;5124519;27;20071;-64
2022/04/28 07:44:35;;;;;;;11.85;3.33;;;;;;;;;;5124213;27;20087;-64
2022/04/28 07:47:03;;;;;;;;;;;;;;;;;;5122817;27;20056;-65
2022/04/28 07:49:29;;;;;;;10.75;3.53;;;;;;;;;;5115640;27;46364;-64
2022/04/28 07:51:55;;;;;;;7.43;2.65;;;;;;;;;;5120248;27;20142;-64
2022/04/28 07:54:22;;;;;;;9.02;2.55;;;;;;;;;;5127735;27;20485;-65
2022/04/28 07:56:48;;;;;;;8.60;2.50;;;;;;;;;;5117853;27;20084;-65
2022/04/28 07:59:15;;;;;;;8.65;2.80;;;;;;;;;;5112331;27;20547;-66
2022/04/28 08:01:50;;;;;;;9.55;3.08;;;;;;;;;;5127994;27;20478;-65
2022/04/28 08:04:16;;;;;;;7.50;2.80;;;;;;;;;;5123057;27;20048;-63
2022/04/28 08:06:43;;;;;;;7.68;2.55;;;;;;;;;;5110862;27;20078;-65
2022/04/28 08:09:09;;;;;;;12.02;2.30;;;;;;;;;;5121521;27;20071;-64
2022/04/28 08:11:38;;;;;;;7.07;2.08;;;;;;;;;;5128551;27;20091;-64
2022/04/28 08:14:04;;;;;;;;;;;;;;;;;;5120029;27;20086;-66
2022/04/28 08:16:30;;;;;;;9.93;3.40;;;;;;;;;;5127607;27;45839;-65
2022/04/28 08:18:57;;;;;;;10.27;3.65;;;;;;;;;;5118531;27;20077;-65
2022/04/28 08:21:23;;;;;;;7.07;2.88;;;;;;;;;;5116638;27;20096;-64
2022/04/28 08:23:49;;;;;;;12.55;3.30;;;;;;;;;;5119637;27;20047;-64
2022/04/28 08:26:16;;;;;;;8.15;4.03;;;;;;;;;;5126860;27;20584;-65
2022/04/28 08:28:42;;;;;;;10.18;3.88;;;;;;;;;;5117633;27;20151;-64
2022/04/28 08:31:08;;;;;;;10.63;3.22;;;;;;;;;;5119249;27;20076;-64
2022/04/28 08:33:35;;;;;;;8.55;3.33;;;;;;;;;;5128713;27;20051;-64
2022/04/28 08:36:02;;;;;;;9.30;3.58;;;;;;;;;;5122725;27;20087;-65
2022/04/28 08:38:28;;;;;;;12.90;3.65;;;;;;;;;;5107903;27;20091;-66
2022/04/28 08:40:58;;;;;;;18.55;4.70;;;;;;;;;;5123421;27;20071;-67
2022/04/28 08:43:25;;;;;;;10.25;3.50;;;;;;;;;;5111967;27;20138;-67
2022/04/28 08:48:43;;;;;;;9.93;3.08;;;;;;;;;;5121498;27;20091;-65
2022/04/28 08:51:10;;;;;;;13.38;3.15;;;;;;;;;;5128299;27;20087;-65
2022/04/28 08:53:37;;;;;;;12.30;3.50;;;;;;;;;;5127961;27;20490;-63
2022/04/28 08:56:03;;;;;;;12.18;3.17;;;;;;;;;;5128887;27;20056;-64
2022/04/28 08:58:29;;;;;;;9.90;3.42;;;;;;;;;;5127879;27;20927;-63
2022/04/28 09:00:56;;;;;;;11.68;3.17;;;;;;;;;;5128400;27;20090;-63
2022/04/28 09:03:22;;;;;;;14.07;3.63;;;;;;;;;;5127426;27;20669;-63
2022/04/28 09:05:49;;;;;;;7.30;2.83;;;;;;;;;;5128031;27;20044;-65
2022/04/28 09:08:17;;;;;;;11.52;3.85;;;;;;;;;;5128224;27;20623;-63
2022/04/28 09:10:44;;;;;;;7.60;3.20;;;;;;;;;;5128767;27;20174;-63
2022/04/28 09:15:58;;;;;;;9.27;3.00;;;;;;;;;;5128093;27;20138;-63
2022/04/28 09:18:25;;;;;;;10.18;3.97;;;;;;;;;;5127641;27;20178;-63
2022/04/28 09:20:51;;;;;;;10.27;3.22;;;;;;;;;;5120925;27;20060;-63
2022/04/28 09:23:18;;;;;;;13.82;3.40;;;;;;;;;;5126725;27;20051;-63
2022/04/28 09:25:45;;;;;;;12.57;3.22;;;;;;;;;;5128248;27;20071;-63
2022/04/28 09:28:11;;;;;;;15.63;3.40;;;;;;;;;;5127202;27;20204;-63
2022/04/28 09:30:49;;;;;;;7.50;2.92;;;;;;;;;;5127533;27;20134;-63
2022/04/28 09:33:18;;;;;;;7.82;3.10;;;;;;;;;;5126223;27;20052;-63
2022/04/28 09:35:49;;;;;;;11.50;3.90;;;;;;;;;;5126983;27;20060;-63
2022/04/28 09:38:16;;;;;;;11.43;3.45;;;;;;;;;;5127095;27;20573;-63
2022/04/28 09:44:01;;;;;;;10.32;3.22;;;;;;;;;;5080117;27;20555;-64
2022/04/28 09:46:31;;;;;;;8.65;2.95;;;;;;;;;;5127940;27;20051;-63
2022/04/28 09:48:58;;;;;;;9.15;3.13;;;;;;;;;;5127303;27;20524;-63
2022/04/28 09:51:25;;;;;;;12.32;3.67;;;;;;;;;;5127776;27;20051;-65
2022/04/28 09:53:52;;;;;;;10.60;3.70;;;;;;;;;;5126524;27;20104;-63
2022/04/28 09:56:20;;;;;;;8.52;3.72;;;;;;;;;;5118356;27;20058;-63
2022/04/28 09:58:48;;;;;;;9.85;3.92;;;;;;;;;;5127291;27;20105;-63
2022/04/28 10:01:15;;;;;;;15.70;4.72;;;;;;;;;;5126107;27;20072;-63
2022/04/28 10:03:43;;;;;;;10.57;3.97;;;;;;;;;;5107257;27;20056;-64
2022/04/28 10:06:09;;;;;;;11.77;3.53;;;;;;;;;;5119612;27;20051;-64
2022/04/28 10:08:36;;;;;;;11.32;4.10;;;;;;;;;;5130470;27;20102;-64
2022/04/28 10:11:05;;;;;;;8.75;3.75;;;;;;;;;;5127203;27;20091;-64
2022/04/28 10:13:31;;;;;;;8.15;3.83;;;;;;;;;;5114301;27;20086;-64
2022/04/28 10:15:59;;;;;;;11.60;3.80;;;;;;;;;;5130866;27;20051;-64
2022/04/28 10:18:32;;;;;;;14.15;3.60;;;;;;;;;;5125425;27;20151;-64
2022/04/28 10:21:00;;;;;;;10.10;3.67;;;;;;;;;;5115402;27;20146;-64
2022/04/28 10:34:59;;;;;;;7.95;3.50;;;;;;;;;;5131053;27;20130;-64
2022/04/28 10:37:41;;;;;;;10.60;4.13;;;;;;;;;;5129988;27;20938;-64
2022/04/28 10:40:16;;;;;;;9.40;3.40;;;;;;;;;;5119509;27;20956;-64
2022/04/28 10:42:43;;;;;;;10.13;4.88;;;;;;;;;;5122486;27;20051;-64
2022/04/28 10:45:19;;;;;;;8.07;3.72;;;;;;;;;;5129996;27;20101;-64
2022/04/28 10:47:46;;;;;;;13.40;4.07;;;;;;;;;;5128184;27;20047;-64
2022/04/28 10:50:22;;;;;;;9.50;4.18;;;;;;;;;;5119294;27;20058;-64
2022/04/28 10:53:15;;;;;;;12.10;4.15;;;;;;;;;;5125386;27;20136;-64
2022/04/28 10:55:41;;;;;;;9.82;3.78;;;;;;;;;;5114165;27;20078;-64
2022/04/28 10:58:21;;;;;;;523.25;30.67;;;;;;;;;;5130154;27;20151;-64
2022/04/28 11:00:55;;;;;;;29.15;5.00;;;;;;;;;;5127499;27;20048;-64
2022/04/28 11:03:40;;;;;;;233.98;14.68;;;;;;;;;;5119380;27;20095;-64
2022/04/28 11:06:20;;;;;;;12.32;4.20;;;;;;;;;;5119498;27;20052;-64
2022/04/28 11:08:51;;;;;;;9.68;3.90;;;;;;;;;;5129723;27;20055;-64
2022/04/28 11:11:17;;;;;;;9.40;3.67;;;;;;;;;;5124317;27;20072;-64
2022/04/28 11:13:46;;;;;;;9.85;3.80;;;;;;;;;;5124697;27;20060;-64
2022/04/28 11:16:13;;;;;;;11.50;4.03;;;;;;;;;;5119492;27;20528;-65
2022/04/28 11:18:40;;;;;;;9.30;3.58;;;;;;;;;;5116534;27;20469;-65
2022/04/28 11:21:07;;;;;;;9.25;3.75;;;;;;;;;;5126919;27;20564;-65
2022/04/28 11:23:34;;;;;;;9.70;3.95;;;;;;;;;;5124531;27;20140;-65
2022/04/28 11:26:02;;;;;;;10.90;4.03;;;;;;;;;;5129940;27;20079;-65
2022/04/28 11:28:29;;;;;;;12.85;4.05;;;;;;;;;;5127227;27;20118;-65
2022/04/28 11:30:57;;;;;;;11.80;4.63;;;;;;;;;;5125057;27;20091;-65
2022/04/28 11:33:24;;;;;;;9.30;3.95;;;;;;;;;;5124410;27;20083;-65
2022/04/28 11:35:50;;;;;;;15.73;4.80;;;;;;;;;;5129076;27;20056;-65
2022/04/28 11:38:24;;;;;;;11.52;4.35;;;;;;;;;;5118190;27;20079;-65
2022/04/28 11:40:57;;;;;;;12.05;4.70;;;;;;;;;;5115326;27;20049;-65
2022/04/28 11:43:27;;;;;;;13.02;4.03;;;;;;;;;;5123905;27;20125;-65
2022/04/28 11:46:01;;;;;;;10.95;4.43;;;;;;;;;;5130039;27;20055;-65
2022/04/28 11:48:28;;;;;;;15.00;4.50;;;;;;;;;;5128400;27;20087;-64
2022/04/28 11:51:00;;;;;;;13.57;4.13;;;;;;;;;;5129622;27;20079;-64
2022/04/28 11:53:37;;;;;;;10.52;3.92;;;;;;;;;;5124525;27;20064;-65
2022/04/28 11:56:12;;;;;;;10.00;4.70;;;;;;;;;;5130333;27;20395;-64
2022/04/28 11:58:39;;;;;;;13.10;5.22;;;;;;;;;;5126250;27;20055;-64
2022/04/28 12:01:05;;;;;;;12.90;4.53;;;;;;;;;;5125690;27;20599;-64
2022/04/28 12:03:32;;;;;;;11.68;4.65;;;;;;;;;;5125271;27;20043;-64
2022/04/28 12:05:58;;;;;;;11.80;5.18;;;;;;;;;;5129508;27;20062;-64
2022/04/28 12:08:25;;;;;;;13.30;5.10;;;;;;;;;;5125997;27;20142;-64
2022/04/28 12:19:19;;;;;;;12.63;5.40;;;;;;;;;;5119160;27;20140;-64
2022/04/28 12:19:22;;;;;;;12.88;5.55;;;;;;;;;;5124109;27;20158;-64
2022/04/28 12:21:48;;;;;;;15.52;5.78;;;;;;;;;;5122668;27;20174;-64
2022/04/28 12:24:16;;;;;;;12.32;5.35;;;;;;;;;;5122876;27;20499;-64
2022/04/28 12:26:43;;;;;;;15.67;4.67;;;;;;;;;;5111792;27;20084;-64
2022/04/28 12:29:11;;;;;;;9.93;4.47;;;;;;;;;;5121676;27;20083;-64
2022/04/28 12:31:38;;;;;;;15.70;4.70;;;;;;;;;;5113340;27;20253;-65
2022/04/28 12:34:15;;;;;;;8.93;4.65;;;;;;;;;;5128511;27;20060;-64
2022/04/28 12:36:45;;;;;;;11.68;4.60;;;;;;;;;;5127832;27;20154;-64
2022/04/28 12:39:12;;;;;;;10.20;4.20;;;;;;;;;;5127880;27;20105;-64
2022/04/28 12:41:43;;;;;;;15.63;4.40;;;;;;;;;;5126997;27;20083;-65
2022/04/28 12:44:09;;;;;;;10.25;4.30;;;;;;;;;;5125309;27;20097;-64
2022/04/28 12:46:37;;;;;;;13.57;4.50;;;;;;;;;;5123747;27;20585;-65
2022/04/28 12:49:05;;;;;;;12.47;4.80;;;;;;;;;;5127790;27;20083;-65
2022/04/28 12:51:39;;;;;;;10.77;4.90;;;;;;;;;;5110476;27;20313;-64
2022/04/28 12:54:10;;;;;;;13.38;4.55;;;;;;;;;;5128366;27;20448;-64
2022/04/28 12:56:40;;;;;;;9.68;4.03;;;;;;;;;;5128229;27;20055;-65
2022/04/28 12:59:07;;;;;;;10.13;3.97;;;;;;;;;;5127914;27;20087;-64
2022/04/28 13:01:35;;;;;;;13.90;4.72;;;;;;;;;;5123816;27;20052;-64
2022/04/28 13:04:09;;;;;;;14.02;4.47;;;;;;;;;;5115595;27;20051;-64
2022/04/28 13:06:40;;;;;;;12.57;4.95;;;;;;;;;;5128366;27;20051;-64
2022/04/28 13:09:07;;;;;;;13.00;4.32;;;;;;;;;;5128178;27;20079;-64
2022/04/28 13:11:35;;;;;;;11.98;4.50;;;;;;;;;;5128639;27;20048;-64
2022/04/28 13:14:03;;;;;;;17.67;5.28;;;;;;;;;;5124829;27;20695;-65
2022/04/28 13:16:31;;;;;;;7.72;4.40;;;;;;;;;;5119230;27;20100;-64
2022/04/28 13:18:57;;;;;;;9.40;4.40;;;;;;;;;;5119522;27;20525;-64
2022/04/28 13:21:24;;;;;;;10.88;4.93;;;;;;;;;;5127168;27;20935;-64
2022/04/28 13:23:54;;;;;;;11.93;4.00;;;;;;;;;;5128307;27;20071;-65
2022/04/28 13:26:21;;;;;;;9.00;3.97;;;;;;;;;;5128019;27;20085;-65
2022/04/28 13:28:49;;;;;;;8.57;4.00;;;;;;;;;;5127434;27;20535;-64
2022/04/28 13:31:15;;;;;;;10.50;3.72;;;;;;;;;;5124357;27;20071;-64
2022/04/28 13:33:42;;;;;;;11.07;4.60;;;;;;;;;;5126429;27;20098;-65
2022/04/28 13:36:09;;;;;;;12.27;4.82;;;;;;;;;;5116141;27;20150;-67
2022/04/28 13:38:36;;;;;;;12.07;4.53;;;;;;;;;;5127766;27;20139;-66
2022/04/28 13:41:03;;;;;;;8.77;4.03;;;;;;;;;;5110067;27;20068;-66
2022/04/28 13:43:31;;;;;;;12.05;4.72;;;;;;;;;;5127822;27;20131;-66
2022/04/28 13:46:01;;;;;;;11.73;4.68;;;;;;;;;;5127403;27;20127;-66
2022/04/28 13:48:27;;;;;;;10.20;3.92;;;;;;;;;;5127263;27;20075;-66
2022/04/28 13:50:54;;;;;;;8.35;4.40;;;;;;;;;;5127753;27;20083;-66
2022/04/28 13:53:29;;;;;;;9.80;3.95;;;;;;;;;;5118698;27;20051;-65
2022/04/28 13:55:57;;;;;;;7.90;3.60;;;;;;;;;;5127795;27;20201;-65
2022/04/28 13:58:24;;;;;;;11.68;4.05;;;;;;;;;;5118579;27;20087;-68
2022/04/28 14:00:52;;;;;;;8.38;3.95;;;;;;;;;;5121951;27;20155;-65
2022/04/28 14:03:20;;;;;;;8.90;3.72;;;;;;;;;;5126980;27;20505;-65
2022/04/28 14:05:48;;;;;;;16.90;4.53;;;;;;;;;;5121296;27;20051;-66
2022/04/28 14:08:14;;;;;;;6.82;3.78;;;;;;;;;;5127485;27;20079;-66
2022/04/28 14:10:41;;;;;;;9.13;3.78;;;;;;;;;;5127275;27;20129;-65
2022/04/28 14:13:08;;;;;;;8.40;3.63;;;;;;;;;;5127723;27;20566;-65
2022/04/28 14:15:34;;;;;;;11.23;4.45;;;;;;;;;;5128420;27;20543;-66
2022/04/28 14:18:01;;;;;;;8.88;3.78;;;;;;;;;;5127723;27;20055;-66
2022/04/28 14:20:27;;;;;;;9.18;3.60;;;;;;;;;;5126834;27;20147;-66
2022/04/28 14:22:54;;;;;;;10.10;3.58;;;;;;;;;;5128042;27;20071;-65
2022/04/28 14:25:20;;;;;;;11.38;4.05;;;;;;;;;;5127954;27;20079;-69
2022/04/28 14:27:47;;;;;;;8.80;3.90;;;;;;;;;;5118214;27;20150;-70
2022/04/28 14:30:13;;;;;;;7.15;3.63;;;;;;;;;;5121201;27;20513;-69
2022/04/28 14:32:39;;;;;;;8.60;3.72;;;;;;;;;;5127070;27;20075;-70
2022/04/28 14:35:07;;;;;;;10.82;3.65;;;;;;;;;;5127213;27;20089;-71
2022/04/28 14:37:37;;;;;;;12.75;4.15;;;;;;;;;;5128036;27;20144;-71
2022/04/28 14:40:04;;;;;;;12.73;3.88;;;;;;;;;;5126508;27;20087;-71
2022/04/28 14:42:31;;;;;;;8.80;3.25;;;;;;;;;;5127007;27;20079;-69
2022/04/28 14:44:58;;;;;;;7.95;3.85;;;;;;;;;;5120525;27;20080;-67
2022/04/28 14:47:24;;;;;;;15.15;4.20;;;;;;;;;;5122176;27;20080;-65
2022/04/28 14:52:36;;;;;;;11.05;3.10;;;;;;;;;;5129290;27;20072;-64
2022/04/28 14:55:04;;;;;;;10.38;3.72;;;;;;;;;;5129849;27;20101;-65
2022/04/28 14:57:30;;;;;;;;;;;;;;;;;;5113498;27;20048;-64
2022/04/28 14:59:56;;;;;;;8.68;2.97;;;;;;;;;;5123384;27;44382;-64
2022/04/28 15:02:26;;;;;;;13.50;3.70;;;;;;;;;;5124122;27;20061;-64
2022/04/28 15:04:52;;;;;;;9.70;3.13;;;;;;;;;;5127035;27;20056;-64
2022/04/28 15:07:19;;;;;;;9.27;2.95;;;;;;;;;;5128956;27;20055;-64
2022/04/28 15:09:46;;;;;;;7.05;2.95;;;;;;;;;;5130560;27;20079;-65
2022/04/28 15:12:13;;;;;;;11.55;3.10;;;;;;;;;;5130316;27;20168;-64
2022/04/28 15:14:39;;;;;;;8.85;2.75;;;;;;;;;;5126676;27;20105;-64
2022/04/28 15:17:07;;;;;;;10.52;2.72;;;;;;;;;;5127188;27;20584;-64
2022/04/28 15:19:33;;;;;;;16.20;2.50;;;;;;;;;;5129506;27;20125;-65
2022/04/28 15:22:00;;;;;;;8.63;2.90;;;;;;;;;;5130593;27;20121;-65